sensor_id;sensor_type;location;lat;lon;timestamp;P1;durP1;ratioP1;P2;durP2;ratioP2
71558;SDS011;59382;43.852;25.952;2022-09-28T00:00:06;3.38;;;2.20;;
71558;SDS011;59382;43.852;25.952;2022-09-28T00:02:32;5.57;;;2.63;;
71558;SDS011;59382;43.852;25.952;2022-09-28T00:04:59;2.85;;;2.20;;
71558;SDS011;59382;43.852;25.952;2022-09-28T00:07:25;3.85;;;2.22;;
71558;SDS011;59382;43.852;25.952;2022-09-28T00:09:51;2.17;;;1.98;;
71558;SDS011;59382;43.852;25.952;2022-09-28T00:12:16;2.40;;;2.00;;
71558;SDS011;59382;43.852;25.952;2022-09-28T00:14:42;2.25;;;1.90;;
71558;SDS011;59382;43.852;25.952;2022-09-28T00:17:09;2.40;;;2.20;;
71558;SDS011;59382;43.852;25.952;2022-09-28T00:19:36;4.65;;;1.88;;
71558;SDS011;59382;43.852;25.952;2022-09-28T00:22:04;2.78;;;2.20;;
71558;SDS011;59382;43.852;25.952;2022-09-28T00:24:30;3.55;;;2.30;;
71558;SDS011;59382;43.852;25.952;2022-09-28T00:26:56;3.95;;;1.98;;
71558;SDS011;59382;43.852;25.952;2022-09-28T00:31:53;2.60;;;2.40;;
71558;SDS011;59382;43.852;25.952;2022-09-28T00:34:28;2.53;;;1.88;;
71558;SDS011;59382;43.852;25.952;2022-09-28T00:36:58;2.40;;;2.20;;
71558;SDS011;59382;43.852;25.952;2022-09-28T00:39:24;4.20;;;2.80;;
71558;SDS011;59382;43.852;25.952;2022-09-28T00:41:51;2.50;;;2.28;;
71558;SDS011;59382;43.852;25.952;2022-09-28T00:52:18;2.97;;;2.38;;
71558;SDS011;59382;43.852;25.952;2022-09-28T00:54:55;2.00;;;1.90;;
71558;SDS011;59382;43.852;25.952;2022-09-28T00:57:21;5.03;;;2.80;;
71558;SDS011;59382;43.852;25.952;2022-09-28T00:59:48;4.57;;;2.33;;
71558;SDS011;59382;43.852;25.952;2022-09-28T01:02:15;2.95;;;2.65;;
71558;SDS011;59382;43.852;25.952;2022-09-28T01:04:40;2.53;;;2.22;;
71558;SDS011;59382;43.852;25.952;2022-09-28T01:07:07;2.47;;;2.28;;
71558;SDS011;59382;43.852;25.952;2022-09-28T01:09:33;2.60;;;2.40;;
71558;SDS011;59382;43.852;25.952;2022-09-28T01:12:02;2.67;;;2.47;;
71558;SDS011;59382;43.852;25.952;2022-09-28T01:14:28;2.10;;;1.92;;
71558;SDS011;59382;43.852;25.952;2022-09-28T01:17:05;4.22;;;2.22;;
71558;SDS011;59382;43.852;25.952;2022-09-28T01:19:46;2.65;;;2.42;;
71558;SDS011;59382;43.852;25.952;2022-09-28T01:25:00;2.70;;;2.50;;
71558;SDS011;59382;43.852;25.952;2022-09-28T01:27:41;2.78;;;2.40;;
71558;SDS011;59382;43.852;25.952;2022-09-28T01:30:17;2.50;;;2.30;;
71558;SDS011;59382;43.852;25.952;2022-09-28T01:32:54;2.97;;;2.70;;
71558;SDS011;59382;43.852;25.952;2022-09-28T01:38:04;3.03;;;2.50;;
71558;SDS011;59382;43.852;25.952;2022-09-28T01:40:36;2.72;;;2.20;;
71558;SDS011;59382;43.852;25.952;2022-09-28T01:43:04;2.45;;;2.17;;
71558;SDS011;59382;43.852;25.952;2022-09-28T01:45:39;3.63;;;2.63;;
71558;SDS011;59382;43.852;25.952;2022-09-28T01:48:09;2.50;;;2.30;;
71558;SDS011;59382;43.852;25.952;2022-09-28T01:50:39;3.35;;;2.30;;
71558;SDS011;59382;43.852;25.952;2022-09-28T01:53:10;2.45;;;2.20;;
71558;SDS011;59382;43.852;25.952;2022-09-28T01:55:46;2.15;;;1.95;;
71558;SDS011;59382;43.852;25.952;2022-09-28T01:58:18;2.30;;;2.08;;
71558;SDS011;59382;43.852;25.952;2022-09-28T02:00:55;2.63;;;1.95;;
71558;SDS011;59382;43.852;25.952;2022-09-28T02:03:28;2.10;;;1.90;;
71558;SDS011;59382;43.852;25.952;2022-09-28T02:06:04;2.03;;;1.92;;
71558;SDS011;59382;43.852;25.952;2022-09-28T02:08:39;2.78;;;2.58;;
71558;SDS011;59382;43.852;25.952;2022-09-28T02:11:14;7.88;;;2.63;;
71558;SDS011;59382;43.852;25.952;2022-09-28T02:13:54;2.65;;;2.45;;
71558;SDS011;59382;43.852;25.952;2022-09-28T02:18:52;2.53;;;2.20;;
71558;SDS011;59382;43.852;25.952;2022-09-28T02:21:25;3.20;;;2.63;;
71558;SDS011;59382;43.852;25.952;2022-09-28T02:24:02;2.70;;;2.50;;
71558;SDS011;59382;43.852;25.952;2022-09-28T02:26:33;3.70;;;3.38;;
71558;SDS011;59382;43.852;25.952;2022-09-28T02:29:04;3.03;;;2.72;;
71558;SDS011;59382;43.852;25.952;2022-09-28T02:31:30;4.57;;;2.95;;
71558;SDS011;59382;43.852;25.952;2022-09-28T02:33:55;8.20;;;3.35;;
71558;SDS011;59382;43.852;25.952;2022-09-28T02:36:22;3.85;;;3.28;;
71558;SDS011;59382;43.852;25.952;2022-09-28T02:38:50;4.38;;;3.20;;
71558;SDS011;59382;43.852;25.952;2022-09-28T02:46:46;4.13;;;3.00;;
71558;SDS011;59382;43.852;25.952;2022-09-28T03:02:39;4.18;;;2.95;;
71558;SDS011;59382;43.852;25.952;2022-09-28T03:07:57;6.18;;;2.90;;
71558;SDS011;59382;43.852;25.952;2022-09-28T03:10:45;5.70;;;3.90;;
71558;SDS011;59382;43.852;25.952;2022-09-28T03:13:14;3.20;;;2.90;;
71558;SDS011;59382;43.852;25.952;2022-09-28T03:15:41;4.88;;;3.30;;
71558;SDS011;59382;43.852;25.952;2022-09-28T03:18:08;3.05;;;2.75;;
71558;SDS011;59382;43.852;25.952;2022-09-28T03:20:35;2.83;;;2.63;;
71558;SDS011;59382;43.852;25.952;2022-09-28T03:23:01;3.40;;;2.90;;
71558;SDS011;59382;43.852;25.952;2022-09-28T03:25:28;4.00;;;3.20;;
71558;SDS011;59382;43.852;25.952;2022-09-28T03:27:53;3.13;;;2.90;;
71558;SDS011;59382;43.852;25.952;2022-09-28T03:30:19;3.47;;;3.22;;
71558;SDS011;59382;43.852;25.952;2022-09-28T03:32:44;3.35;;;3.10;;
71558;SDS011;59382;43.852;25.952;2022-09-28T03:35:10;3.53;;;3.22;;
71558;SDS011;59382;43.852;25.952;2022-09-28T03:37:36;2.90;;;2.60;;
71558;SDS011;59382;43.852;25.952;2022-09-28T03:40:02;4.20;;;2.90;;
71558;SDS011;59382;43.852;25.952;2022-09-28T03:42:28;4.20;;;3.42;;
71558;SDS011;59382;43.852;25.952;2022-09-28T03:44:53;3.60;;;3.30;;
71558;SDS011;59382;43.852;25.952;2022-09-28T03:47:19;4.57;;;3.38;;
71558;SDS011;59382;43.852;25.952;2022-09-28T03:49:45;3.55;;;3.25;;
71558;SDS011;59382;43.852;25.952;2022-09-28T03:52:11;3.80;;;3.50;;
71558;SDS011;59382;43.852;25.952;2022-09-28T03:54:37;8.63;;;4.00;;
71558;SDS011;59382;43.852;25.952;2022-09-28T03:57:03;3.85;;;3.17;;
71558;SDS011;59382;43.852;25.952;2022-09-28T03:59:28;5.57;;;3.28;;
71558;SDS011;59382;43.852;25.952;2022-09-28T04:01:55;4.72;;;3.08;;
71558;SDS011;59382;43.852;25.952;2022-09-28T04:04:20;3.70;;;3.35;;
71558;SDS011;59382;43.852;25.952;2022-09-28T04:06:46;3.63;;;3.33;;
71558;SDS011;59382;43.852;25.952;2022-09-28T04:09:11;3.72;;;3.42;;
71558;SDS011;59382;43.852;25.952;2022-09-28T04:11:37;8.25;;;3.88;;
71558;SDS011;59382;43.852;25.952;2022-09-28T04:14:02;3.20;;;2.90;;
71558;SDS011;59382;43.852;25.952;2022-09-28T04:16:28;3.72;;;3.42;;
71558;SDS011;59382;43.852;25.952;2022-09-28T04:18:53;6.88;;;4.25;;
71558;SDS011;59382;43.852;25.952;2022-09-28T04:21:19;4.88;;;3.70;;
71558;SDS011;59382;43.852;25.952;2022-09-28T04:23:45;4.25;;;3.85;;
71558;SDS011;59382;43.852;25.952;2022-09-28T04:26:14;6.57;;;3.42;;
71558;SDS011;59382;43.852;25.952;2022-09-28T04:28:42;4.47;;;3.70;;
71558;SDS011;59382;43.852;25.952;2022-09-28T04:31:28;3.60;;;3.30;;
71558;SDS011;59382;43.852;25.952;2022-09-28T04:33:56;6.88;;;3.70;;
71558;SDS011;59382;43.852;25.952;2022-09-28T04:36:22;4.82;;;3.53;;
71558;SDS011;59382;43.852;25.952;2022-09-28T04:38:50;3.47;;;3.17;;
71558;SDS011;59382;43.852;25.952;2022-09-28T04:41:16;4.15;;;3.85;;
71558;SDS011;59382;43.852;25.952;2022-09-28T04:43:42;5.65;;;3.53;;
71558;SDS011;59382;43.852;25.952;2022-09-28T04:46:08;8.27;;;3.83;;
71558;SDS011;59382;43.852;25.952;2022-09-28T04:48:36;6.10;;;3.78;;
71558;SDS011;59382;43.852;25.952;2022-09-28T04:51:02;7.15;;;3.97;;
71558;SDS011;59382;43.852;25.952;2022-09-28T04:53:28;3.70;;;3.40;;
71558;SDS011;59382;43.852;25.952;2022-09-28T04:56:15;5.10;;;3.80;;
71558;SDS011;59382;43.852;25.952;2022-09-28T04:58:40;4.88;;;4.32;;
71558;SDS011;59382;43.852;25.952;2022-09-28T05:01:07;5.85;;;4.30;;
71558;SDS011;59382;43.852;25.952;2022-09-28T05:03:36;6.32;;;5.10;;
71558;SDS011;59382;43.852;25.952;2022-09-28T05:06:02;6.25;;;4.90;;
71558;SDS011;59382;43.852;25.952;2022-09-28T05:08:27;4.82;;;3.80;;
71558;SDS011;59382;43.852;25.952;2022-09-28T05:10:57;6.75;;;4.05;;
71558;SDS011;59382;43.852;25.952;2022-09-28T05:13:31;4.85;;;3.58;;
71558;SDS011;59382;43.852;25.952;2022-09-28T05:15:57;4.40;;;3.58;;
71558;SDS011;59382;43.852;25.952;2022-09-28T05:18:23;4.15;;;3.40;;
71558;SDS011;59382;43.852;25.952;2022-09-28T05:20:49;8.45;;;5.88;;
71558;SDS011;59382;43.852;25.952;2022-09-28T05:23:15;5.70;;;3.97;;
71558;SDS011;59382;43.852;25.952;2022-09-28T05:25:41;10.40;;;4.10;;
71558;SDS011;59382;43.852;25.952;2022-09-28T05:28:09;3.88;;;3.47;;
71558;SDS011;59382;43.852;25.952;2022-09-28T05:30:35;3.78;;;3.47;;
71558;SDS011;59382;43.852;25.952;2022-09-28T05:33:02;4.25;;;3.25;;
71558;SDS011;59382;43.852;25.952;2022-09-28T05:35:28;3.78;;;3.05;;
71558;SDS011;59382;43.852;25.952;2022-09-28T05:37:54;3.42;;;2.95;;
71558;SDS011;59382;43.852;25.952;2022-09-28T05:40:21;4.95;;;2.70;;
71558;SDS011;59382;43.852;25.952;2022-09-28T05:42:47;6.93;;;2.90;;
71558;SDS011;59382;43.852;25.952;2022-09-28T05:45:12;2.72;;;2.53;;
71558;SDS011;59382;43.852;25.952;2022-09-28T05:47:38;2.50;;;2.25;;
71558;SDS011;59382;43.852;25.952;2022-09-28T05:50:06;4.68;;;2.55;;
71558;SDS011;59382;43.852;25.952;2022-09-28T05:52:35;4.75;;;2.50;;
71558;SDS011;59382;43.852;25.952;2022-09-28T05:55:04;2.63;;;2.40;;
71558;SDS011;59382;43.852;25.952;2022-09-28T05:57:30;3.05;;;2.20;;
71558;SDS011;59382;43.852;25.952;2022-09-28T05:59:56;2.85;;;2.47;;
71558;SDS011;59382;43.852;25.952;2022-09-28T06:02:22;3.20;;;2.03;;
71558;SDS011;59382;43.852;25.952;2022-09-28T06:04:47;7.38;;;2.78;;
71558;SDS011;59382;43.852;25.952;2022-09-28T06:07:15;5.60;;;2.42;;
71558;SDS011;59382;43.852;25.952;2022-09-28T06:09:44;2.53;;;2.33;;
71558;SDS011;59382;43.852;25.952;2022-09-28T06:12:10;2.65;;;2.28;;
71558;SDS011;59382;43.852;25.952;2022-09-28T06:14:36;2.10;;;1.95;;
71558;SDS011;59382;43.852;25.952;2022-09-28T06:17:03;3.38;;;2.40;;
71558;SDS011;59382;43.852;25.952;2022-09-28T06:19:28;3.15;;;2.55;;
71558;SDS011;59382;43.852;25.952;2022-09-28T06:21:54;6.97;;;2.13;;
71558;SDS011;59382;43.852;25.952;2022-09-28T06:24:19;2.08;;;1.88;;
71558;SDS011;59382;43.852;25.952;2022-09-28T06:26:48;3.35;;;1.60;;
71558;SDS011;59382;43.852;25.952;2022-09-28T06:29:13;1.80;;;1.70;;
71558;SDS011;59382;43.852;25.952;2022-09-28T06:31:43;2.88;;;1.70;;
71558;SDS011;59382;43.852;25.952;2022-09-28T06:34:10;4.75;;;3.10;;
71558;SDS011;59382;43.852;25.952;2022-09-28T06:36:38;2.15;;;1.80;;
71558;SDS011;59382;43.852;25.952;2022-09-28T06:39:04;4.32;;;1.77;;
71558;SDS011;59382;43.852;25.952;2022-09-28T06:41:29;2.00;;;1.80;;
71558;SDS011;59382;43.852;25.952;2022-09-28T06:43:55;5.03;;;3.60;;
71558;SDS011;59382;43.852;25.952;2022-09-28T06:46:21;3.92;;;1.92;;
71558;SDS011;59382;43.852;25.952;2022-09-28T06:48:47;3.17;;;2.17;;
71558;SDS011;59382;43.852;25.952;2022-09-28T06:51:14;5.30;;;1.88;;
71558;SDS011;59382;43.852;25.952;2022-09-28T06:53:40;1.88;;;1.55;;
71558;SDS011;59382;43.852;25.952;2022-09-28T06:56:09;2.35;;;1.40;;
71558;SDS011;59382;43.852;25.952;2022-09-28T06:58:35;4.90;;;1.50;;
71558;SDS011;59382;43.852;25.952;2022-09-28T07:01:01;2.90;;;1.60;;
71558;SDS011;59382;43.852;25.952;2022-09-28T07:03:27;5.88;;;1.70;;
71558;SDS011;59382;43.852;25.952;2022-09-28T07:05:53;8.25;;;2.58;;
71558;SDS011;59382;43.852;25.952;2022-09-28T07:08:21;7.72;;;2.58;;
71558;SDS011;59382;43.852;25.952;2022-09-28T07:10:49;8.77;;;2.08;;
71558;SDS011;59382;43.852;25.952;2022-09-28T07:13:21;5.10;;;2.00;;
71558;SDS011;59382;43.852;25.952;2022-09-28T07:15:53;5.28;;;2.08;;
71558;SDS011;59382;43.852;25.952;2022-09-28T07:18:19;5.57;;;1.85;;
71558;SDS011;59382;43.852;25.952;2022-09-28T07:20:45;15.13;;;1.90;;
71558;SDS011;59382;43.852;25.952;2022-09-28T07:23:11;9.82;;;2.42;;
71558;SDS011;59382;43.852;25.952;2022-09-28T07:25:36;7.20;;;1.90;;
71558;SDS011;59382;43.852;25.952;2022-09-28T07:28:04;5.07;;;2.30;;
71558;SDS011;59382;43.852;25.952;2022-09-28T07:30:31;6.57;;;1.70;;
71558;SDS011;59382;43.852;25.952;2022-09-28T07:32:59;10.68;;;1.90;;
71558;SDS011;59382;43.852;25.952;2022-09-28T07:35:26;4.40;;;2.30;;
71558;SDS011;59382;43.852;25.952;2022-09-28T07:40:25;8.50;;;2.55;;
71558;SDS011;59382;43.852;25.952;2022-09-28T07:43:10;13.43;;;1.80;;
71558;SDS011;59382;43.852;25.952;2022-09-28T07:45:37;10.15;;;1.70;;
71558;SDS011;59382;43.852;25.952;2022-09-28T07:48:07;9.02;;;1.30;;
71558;SDS011;59382;43.852;25.952;2022-09-28T07:50:33;12.45;;;1.50;;
71558;SDS011;59382;43.852;25.952;2022-09-28T07:52:59;27.65;;;2.15;;
71558;SDS011;59382;43.852;25.952;2022-09-28T07:55:24;1.98;;;1.05;;
71558;SDS011;59382;43.852;25.952;2022-09-28T07:57:54;3.97;;;1.27;;
71558;SDS011;59382;43.852;25.952;2022-09-28T08:00:25;12.48;;;2.05;;
71558;SDS011;59382;43.852;25.952;2022-09-28T08:02:51;11.10;;;2.35;;
71558;SDS011;59382;43.852;25.952;2022-09-28T08:05:17;5.95;;;1.75;;
71558;SDS011;59382;43.852;25.952;2022-09-28T08:07:43;10.60;;;1.70;;
71558;SDS011;59382;43.852;25.952;2022-09-28T08:10:09;15.50;;;1.70;;
71558;SDS011;59382;43.852;25.952;2022-09-28T08:12:35;28.77;;;3.03;;
71558;SDS011;59382;43.852;25.952;2022-09-28T08:15:05;10.20;;;2.10;;
71558;SDS011;59382;43.852;25.952;2022-09-28T08:17:35;6.63;;;1.65;;
71558;SDS011;59382;43.852;25.952;2022-09-28T08:20:01;10.13;;;1.83;;
71558;SDS011;59382;43.852;25.952;2022-09-28T08:22:49;14.40;;;1.90;;
71558;SDS011;59382;43.852;25.952;2022-09-28T08:25:17;7.97;;;1.60;;
71558;SDS011;59382;43.852;25.952;2022-09-28T08:27:42;9.68;;;2.33;;
71558;SDS011;59382;43.852;25.952;2022-09-28T08:30:08;5.07;;;1.75;;
71558;SDS011;59382;43.852;25.952;2022-09-28T08:32:34;24.25;;;3.08;;
71558;SDS011;59382;43.852;25.952;2022-09-28T08:34:59;8.55;;;1.52;;
71558;SDS011;59382;43.852;25.952;2022-09-28T08:37:25;3.63;;;2.15;;
71558;SDS011;59382;43.852;25.952;2022-09-28T08:39:50;9.18;;;2.00;;
71558;SDS011;59382;43.852;25.952;2022-09-28T08:44:58;3.40;;;2.40;;
71558;SDS011;59382;43.852;25.952;2022-09-28T08:47:50;12.70;;;1.73;;
71558;SDS011;59382;43.852;25.952;2022-09-28T08:51:00;9.27;;;2.58;;
71558;SDS011;59382;43.852;25.952;2022-09-28T08:56:03;5.95;;;1.52;;
71558;SDS011;59382;43.852;25.952;2022-09-28T08:58:35;14.80;;;1.60;;
71558;SDS011;59382;43.852;25.952;2022-09-28T09:01:06;8.48;;;1.83;;
71558;SDS011;59382;43.852;25.952;2022-09-28T09:03:36;6.45;;;1.75;;
71558;SDS011;59382;43.852;25.952;2022-09-28T09:08:47;7.05;;;2.38;;
71558;SDS011;59382;43.852;25.952;2022-09-28T09:18:53;5.13;;;1.58;;
71558;SDS011;59382;43.852;25.952;2022-09-28T09:24:03;9.15;;;1.50;;
71558;SDS011;59382;43.852;25.952;2022-09-28T09:26:42;10.82;;;2.92;;
71558;SDS011;59382;43.852;25.952;2022-09-28T09:37:41;6.95;;;1.10;;
71558;SDS011;59382;43.852;25.952;2022-09-28T09:48:23;4.68;;;1.20;;
71558;SDS011;59382;43.852;25.952;2022-09-28T09:50:59;4.85;;;1.25;;
71558;SDS011;59382;43.852;25.952;2022-09-28T09:53:35;5.18;;;1.52;;
71558;SDS011;59382;43.852;25.952;2022-09-28T09:56:14;8.48;;;1.52;;
71558;SDS011;59382;43.852;25.952;2022-09-28T09:58:45;2.10;;;1.70;;
71558;SDS011;59382;43.852;25.952;2022-09-28T10:01:17;7.50;;;1.30;;
71558;SDS011;59382;43.852;25.952;2022-09-28T10:03:45;4.88;;;1.13;;
71558;SDS011;59382;43.852;25.952;2022-09-28T10:06:15;3.30;;;1.30;;
71558;SDS011;59382;43.852;25.952;2022-09-28T10:08:47;2.67;;;1.10;;
71558;SDS011;59382;43.852;25.952;2022-09-28T10:11:21;4.40;;;1.58;;
71558;SDS011;59382;43.852;25.952;2022-09-28T10:13:52;3.53;;;1.15;;
71558;SDS011;59382;43.852;25.952;2022-09-28T10:16:18;2.25;;;1.25;;
71558;SDS011;59382;43.852;25.952;2022-09-28T10:18:44;2.05;;;0.93;;
71558;SDS011;59382;43.852;25.952;2022-09-28T10:21:13;2.15;;;1.08;;
71558;SDS011;59382;43.852;25.952;2022-09-28T10:23:39;2.88;;;1.05;;
71558;SDS011;59382;43.852;25.952;2022-09-28T10:26:09;4.57;;;1.55;;
71558;SDS011;59382;43.852;25.952;2022-09-28T10:29:22;2.45;;;1.40;;
71558;SDS011;59382;43.852;25.952;2022-09-28T10:31:44;2.00;;;1.10;;
71558;SDS011;59382;43.852;25.952;2022-09-28T10:34:13;5.80;;;1.50;;
71558;SDS011;59382;43.852;25.952;2022-09-28T10:36:51;7.88;;;1.45;;
71558;SDS011;59382;43.852;25.952;2022-09-28T10:39:22;2.30;;;1.10;;
71558;SDS011;59382;43.852;25.952;2022-09-28T10:41:54;5.28;;;1.40;;
71558;SDS011;59382;43.852;25.952;2022-09-28T10:44:22;3.28;;;1.50;;
71558;SDS011;59382;43.852;25.952;2022-09-28T10:46:55;7.03;;;1.27;;
71558;SDS011;59382;43.852;25.952;2022-09-28T10:49:23;0.80;;;0.80;;
71558;SDS011;59382;43.852;25.952;2022-09-28T10:51:51;3.78;;;1.50;;
71558;SDS011;59382;43.852;25.952;2022-09-28T10:54:19;5.70;;;1.15;;
71558;SDS011;59382;43.852;25.952;2022-09-28T10:56:49;3.05;;;1.27;;
71558;SDS011;59382;43.852;25.952;2022-09-28T11:02:38;3.10;;;1.10;;
71558;SDS011;59382;43.852;25.952;2022-09-28T11:04:42;3.15;;;0.93;;
71558;SDS011;59382;43.852;25.952;2022-09-28T11:07:25;2.70;;;1.02;;
71558;SDS011;59382;43.852;25.952;2022-09-28T11:09:54;3.30;;;1.30;;
71558;SDS011;59382;43.852;25.952;2022-09-28T11:12:23;5.50;;;1.20;;
71558;SDS011;59382;43.852;25.952;2022-09-28T11:14:55;2.83;;;1.10;;
71558;SDS011;59382;43.852;25.952;2022-09-28T11:17:29;2.75;;;1.05;;
71558;SDS011;59382;43.852;25.952;2022-09-28T11:20:01;4.03;;;1.10;;
71558;SDS011;59382;43.852;25.952;2022-09-28T11:22:52;1.33;;;0.90;;
71558;SDS011;59382;43.852;25.952;2022-09-28T11:25:23;1.90;;;0.90;;
71558;SDS011;59382;43.852;25.952;2022-09-28T11:33:28;3.78;;;1.17;;
71558;SDS011;59382;43.852;25.952;2022-09-28T11:41:56;4.50;;;1.33;;
71558;SDS011;59382;43.852;25.952;2022-09-28T11:49:58;4.93;;;2.00;;
71558;SDS011;59382;43.852;25.952;2022-09-28T11:55:26;4.30;;;1.13;;
71558;SDS011;59382;43.852;25.952;2022-09-28T12:00:48;1.55;;;1.35;;
71558;SDS011;59382;43.852;25.952;2022-09-28T12:03:53;5.28;;;1.10;;
71558;SDS011;59382;43.852;25.952;2022-09-28T12:06:21;2.55;;;1.30;;
71558;SDS011;59382;43.852;25.952;2022-09-28T12:08:58;1.58;;;1.30;;
71558;SDS011;59382;43.852;25.952;2022-09-28T12:11:32;8.45;;;1.42;;
71558;SDS011;59382;43.852;25.952;2022-09-28T12:14:01;2.85;;;1.13;;
71558;SDS011;59382;43.852;25.952;2022-09-28T12:16:33;3.58;;;1.45;;
71558;SDS011;59382;43.852;25.952;2022-09-28T12:19:23;1.30;;;0.95;;
71558;SDS011;59382;43.852;25.952;2022-09-28T12:21:56;3.25;;;0.80;;
71558;SDS011;59382;43.852;25.952;2022-09-28T12:24:30;3.22;;;1.65;;
71558;SDS011;59382;43.852;25.952;2022-09-28T12:27:13;0.77;;;0.77;;
71558;SDS011;59382;43.852;25.952;2022-09-28T12:32:37;1.67;;;0.90;;
71558;SDS011;59382;43.852;25.952;2022-09-28T12:35:13;6.50;;;1.02;;
71558;SDS011;59382;43.852;25.952;2022-09-28T12:55:18;3.50;;;0.90;;
71558;SDS011;59382;43.852;25.952;2022-09-28T12:58:05;1.50;;;1.00;;
71558;SDS011;59382;43.852;25.952;2022-09-28T13:03:22;7.05;;;1.33;;
71558;SDS011;59382;43.852;25.952;2022-09-28T13:06:34;4.68;;;1.20;;
71558;SDS011;59382;43.852;25.952;2022-09-28T13:11:54;2.08;;;1.25;;
71558;SDS011;59382;43.852;25.952;2022-09-28T13:17:39;3.05;;;0.82;;
71558;SDS011;59382;43.852;25.952;2022-09-28T13:23:24;2.88;;;1.02;;
71558;SDS011;59382;43.852;25.952;2022-09-28T13:28:25;2.58;;;1.25;;
71558;SDS011;59382;43.852;25.952;2022-09-28T13:30:52;3.28;;;1.42;;
71558;SDS011;59382;43.852;25.952;2022-09-28T13:33:24;1.33;;;1.23;;
71558;SDS011;59382;43.852;25.952;2022-09-28T13:35:54;8.02;;;1.92;;
71558;SDS011;59382;43.852;25.952;2022-09-28T13:43:30;2.88;;;0.90;;
71558;SDS011;59382;43.852;25.952;2022-09-28T13:45:59;2.88;;;1.00;;
71558;SDS011;59382;43.852;25.952;2022-09-28T13:48:45;2.63;;;1.20;;
71558;SDS011;59382;43.852;25.952;2022-09-28T13:54:44;3.42;;;2.47;;
71558;SDS011;59382;43.852;25.952;2022-09-28T13:57:20;10.55;;;3.65;;
71558;SDS011;59382;43.852;25.952;2022-09-28T13:59:56;6.30;;;1.65;;
71558;SDS011;59382;43.852;25.952;2022-09-28T14:02:34;1.35;;;0.85;;
71558;SDS011;59382;43.852;25.952;2022-09-28T14:05:24;5.80;;;2.15;;
71558;SDS011;59382;43.852;25.952;2022-09-28T14:18:42;4.07;;;1.67;;
71558;SDS011;59382;43.852;25.952;2022-09-28T14:27:08;5.13;;;1.80;;
71558;SDS011;59382;43.852;25.952;2022-09-28T14:29:39;5.82;;;1.50;;
71558;SDS011;59382;43.852;25.952;2022-09-28T14:34:35;3.17;;;1.58;;
71558;SDS011;59382;43.852;25.952;2022-09-28T14:37:02;3.35;;;1.90;;
71558;SDS011;59382;43.852;25.952;2022-09-28T14:39:48;3.28;;;1.50;;
71558;SDS011;59382;43.852;25.952;2022-09-28T14:42:33;5.97;;;1.43;;
71558;SDS011;59382;43.852;25.952;2022-09-28T14:47:34;4.20;;;1.73;;
71558;SDS011;59382;43.852;25.952;2022-09-28T14:50:11;4.90;;;2.20;;
71558;SDS011;59382;43.852;25.952;2022-09-28T14:52:52;4.88;;;3.45;;
71558;SDS011;59382;43.852;25.952;2022-09-28T14:55:28;8.57;;;7.05;;
71558;SDS011;59382;43.852;25.952;2022-09-28T14:57:59;7.13;;;3.97;;
71558;SDS011;59382;43.852;25.952;2022-09-28T15:00:28;7.22;;;4.60;;
71558;SDS011;59382;43.852;25.952;2022-09-28T15:02:59;5.63;;;3.20;;
71558;SDS011;59382;43.852;25.952;2022-09-28T15:05:29;12.30;;;8.75;;
71558;SDS011;59382;43.852;25.952;2022-09-28T15:08:01;13.35;;;7.65;;
71558;SDS011;59382;43.852;25.952;2022-09-28T15:13:20;3.20;;;2.90;;
71558;SDS011;59382;43.852;25.952;2022-09-28T15:15:53;8.70;;;2.28;;
71558;SDS011;59382;43.852;25.952;2022-09-28T15:18:29;8.20;;;1.70;;
71558;SDS011;59382;43.852;25.952;2022-09-28T15:21:08;8.32;;;2.53;;
71558;SDS011;59382;43.852;25.952;2022-09-28T15:23:36;3.33;;;1.48;;
71558;SDS011;59382;43.852;25.952;2022-09-28T15:26:04;5.68;;;1.83;;
71558;SDS011;59382;43.852;25.952;2022-09-28T15:28:35;8.25;;;2.85;;
71558;SDS011;59382;43.852;25.952;2022-09-28T15:31:03;5.80;;;1.30;;
71558;SDS011;59382;43.852;25.952;2022-09-28T15:33:30;1.80;;;1.35;;
71558;SDS011;59382;43.852;25.952;2022-09-28T15:36:22;6.85;;;1.83;;
71558;SDS011;59382;43.852;25.952;2022-09-28T15:38:59;6.28;;;3.50;;
71558;SDS011;59382;43.852;25.952;2022-09-28T15:41:26;5.05;;;1.45;;
71558;SDS011;59382;43.852;25.952;2022-09-28T15:46:38;10.00;;;2.22;;
71558;SDS011;59382;43.852;25.952;2022-09-28T15:49:05;5.30;;;1.48;;
71558;SDS011;59382;43.852;25.952;2022-09-28T15:51:46;4.75;;;2.35;;
71558;SDS011;59382;43.852;25.952;2022-09-28T15:54:16;4.40;;;1.58;;
71558;SDS011;59382;43.852;25.952;2022-09-28T15:56:55;6.53;;;2.17;;
71558;SDS011;59382;43.852;25.952;2022-09-28T16:04:48;6.97;;;1.85;;
71558;SDS011;59382;43.852;25.952;2022-09-28T16:09:58;9.43;;;2.45;;
71558;SDS011;59382;43.852;25.952;2022-09-28T16:15:06;8.23;;;2.08;;
71558;SDS011;59382;43.852;25.952;2022-09-28T16:18:19;9.52;;;2.00;;
71558;SDS011;59382;43.852;25.952;2022-09-28T16:20:37;3.88;;;2.72;;
71558;SDS011;59382;43.852;25.952;2022-09-28T16:23:40;12.52;;;2.67;;
71558;SDS011;59382;43.852;25.952;2022-09-28T16:26:09;8.77;;;2.88;;
71558;SDS011;59382;43.852;25.952;2022-09-28T16:28:49;8.88;;;2.90;;
71558;SDS011;59382;43.852;25.952;2022-09-28T16:36:41;7.82;;;3.13;;
71558;SDS011;59382;43.852;25.952;2022-09-28T16:39:10;5.38;;;2.03;;
71558;SDS011;59382;43.852;25.952;2022-09-28T16:41:41;2.83;;;1.38;;
71558;SDS011;59382;43.852;25.952;2022-09-28T16:44:26;3.63;;;2.10;;
71558;SDS011;59382;43.852;25.952;2022-09-28T16:46:56;2.42;;;1.63;;
71558;SDS011;59382;43.852;25.952;2022-09-28T16:49:24;4.38;;;1.73;;
71558;SDS011;59382;43.852;25.952;2022-09-28T16:51:52;6.13;;;2.30;;
71558;SDS011;59382;43.852;25.952;2022-09-28T16:54:19;4.20;;;2.55;;
71558;SDS011;59382;43.852;25.952;2022-09-28T16:57:08;7.85;;;3.13;;
71558;SDS011;59382;43.852;25.952;2022-09-28T16:59:36;11.13;;;3.85;;
71558;SDS011;59382;43.852;25.952;2022-09-28T17:02:20;9.75;;;3.78;;
71558;SDS011;59382;43.852;25.952;2022-09-28T17:04:50;11.38;;;3.80;;
71558;SDS011;59382;43.852;25.952;2022-09-28T17:07:15;9.73;;;4.07;;
71558;SDS011;59382;43.852;25.952;2022-09-28T17:09:47;10.80;;;4.20;;
71558;SDS011;59382;43.852;25.952;2022-09-28T17:12:17;16.08;;;5.00;;
71558;SDS011;59382;43.852;25.952;2022-09-28T17:14:47;14.50;;;6.28;;
71558;SDS011;59382;43.852;25.952;2022-09-28T17:17:13;21.38;;;6.45;;
71558;SDS011;59382;43.852;25.952;2022-09-28T17:19:38;19.02;;;5.57;;
71558;SDS011;59382;43.852;25.952;2022-09-28T17:22:09;13.02;;;5.07;;
71558;SDS011;59382;43.852;25.952;2022-09-28T17:24:34;22.10;;;6.07;;
71558;SDS011;59382;43.852;25.952;2022-09-28T17:27:00;23.55;;;6.13;;
71558;SDS011;59382;43.852;25.952;2022-09-28T17:29:27;16.80;;;6.38;;
71558;SDS011;59382;43.852;25.952;2022-09-28T17:31:53;16.15;;;6.00;;
71558;SDS011;59382;43.852;25.952;2022-09-28T17:34:29;20.30;;;6.38;;
71558;SDS011;59382;43.852;25.952;2022-09-28T17:36:55;20.67;;;6.32;;
71558;SDS011;59382;43.852;25.952;2022-09-28T17:39:20;18.70;;;6.53;;
71558;SDS011;59382;43.852;25.952;2022-09-28T17:41:49;19.75;;;6.22;;
71558;SDS011;59382;43.852;25.952;2022-09-28T17:44:15;12.25;;;5.97;;
71558;SDS011;59382;43.852;25.952;2022-09-28T17:46:44;17.38;;;6.60;;
71558;SDS011;59382;43.852;25.952;2022-09-28T17:49:12;12.35;;;5.88;;
71558;SDS011;59382;43.852;25.952;2022-09-28T17:51:38;18.25;;;5.72;;
71558;SDS011;59382;43.852;25.952;2022-09-28T17:54:05;12.13;;;4.63;;
71558;SDS011;59382;43.852;25.952;2022-09-28T17:56:33;12.68;;;4.95;;
71558;SDS011;59382;43.852;25.952;2022-09-28T17:59:00;11.10;;;4.50;;
71558;SDS011;59382;43.852;25.952;2022-09-28T18:01:29;13.32;;;4.60;;